Time;durP1;ratioP1;P1;durP2;ratioP2;P2;SDS_P1;SDS_P2;PMS_P1;PMS_P2;Temp;Humidity;BMP_temperature;BMP_pressure;BME280_temperature;BME280_humidity;BME280_pressure;Samples;Min_cycle;Max_cycle;Signal;HPM_P1;HPM_P2
2023/03/31 00:00:50;;;;;;;3.63;2.60;;;13.20;78.80;;;;;;5082739;28;20178;-87
2023/03/31 00:03:24;;;;;;;4.97;2.70;;;13.20;79.10;;;;;;5063559;28;20245;-86
2023/03/31 00:05:58;;;;;;;5.00;2.73;;;13.10;79.00;;;;;;5080533;28;20212;-87
2023/03/31 00:08:28;;;;;;;5.17;3.03;;;13.20;77.30;;;;;;5078006;28;20191;-88
2023/03/31 00:11:00;;;;;;;6.17;3.17;;;13.10;77.80;;;;;;5067266;28;20652;-87
2023/03/31 00:13:27;;;;;;;5.07;2.77;;;13.10;78.00;;;;;;5065475;28;20168;-87
2023/03/31 00:16:02;;;;;;;4.07;2.90;;;13.00;78.70;;;;;;5059947;28;20213;-86
2023/03/31 00:18:28;;;;;;;5.30;3.03;;;12.90;78.40;;;;;;5064809;28;20479;-86
2023/03/31 00:20:58;;;;;;;4.03;2.90;;;13.00;78.00;;;;;;5082957;28;20480;-86
2023/03/31 00:23:26;;;;;;;5.37;3.30;;;13.10;77.90;;;;;;5083245;28;20176;-87
2023/03/31 00:25:53;;;;;;;5.00;2.80;;;13.10;77.40;;;;;;5082448;28;20224;-87
2023/03/31 00:28:19;;;;;;;5.00;2.80;;;13.10;76.40;;;;;;5081203;28;20701;-87
2023/03/31 00:30:46;;;;;;;7.37;2.80;;;13.10;75.60;;;;;;5065711;28;20184;-89
2023/03/31 00:33:12;;;;;;;4.10;2.70;;;13.30;75.60;;;;;;5063620;28;20183;-87
2023/03/31 00:35:39;;;;;;;6.17;3.10;;;13.40;76.30;;;;;;5061535;28;20200;-86
2023/03/31 00:38:07;;;;;;;5.80;2.83;;;13.40;77.00;;;;;;5074574;28;20187;-87
2023/03/31 00:40:42;;;;;;;3.53;2.70;;;13.30;78.10;;;;;;5081913;28;20174;-85
2023/03/31 00:43:29;;;;;;;3.57;2.77;;;13.30;79.20;;;;;;5063154;28;20178;-88
2023/03/31 00:46:14;;;;;;;6.50;3.00;;;13.30;79.20;;;;;;5082307;28;20211;-86
2023/03/31 00:48:56;;;;;;;5.57;3.00;;;13.30;79.10;;;;;;5080544;28;20644;-87
2023/03/31 00:51:24;;;;;;;4.50;3.20;;;13.20;80.10;;;;;;5081325;28;20204;-87
2023/03/31 00:53:58;;;;;;;5.73;3.07;;;13.10;80.70;;;;;;5081578;28;20635;-88
2023/03/31 00:56:27;;;;;;;5.03;2.83;;;13.00;83.00;;;;;;5080409;28;20189;-87
2023/03/31 00:58:58;;;;;;;7.47;3.10;;;12.90;83.60;;;;;;5060189;28;20186;-88
2023/03/31 01:01:25;;;;;;;5.03;3.10;;;12.80;85.90;;;;;;5058698;28;20160;-89
2023/03/31 01:03:51;;;;;;;6.23;2.50;;;12.80;80.70;;;;;;5059741;28;20263;-87
2023/03/31 01:06:22;;;;;;;5.00;2.70;;;12.80;81.30;;;;;;5061122;28;20196;-87
2023/03/31 01:08:50;;;;;;;3.73;2.50;;;12.80;80.70;;;;;;5083000;28;20191;-87
2023/03/31 01:11:20;;;;;;;3.97;2.17;;;12.80;82.50;;;;;;5080503;28;20175;-88
2023/03/31 01:13:49;;;;;;;6.13;2.90;;;12.80;83.10;;;;;;5079046;28;20163;-86
2023/03/31 01:16:16;;;;;;;4.77;2.03;;;12.80;81.70;;;;;;5079099;28;20260;-87
2023/03/31 01:18:44;;;;;;;4.13;2.20;;;12.70;82.10;;;;;;5064075;28;20242;-89
2023/03/31 01:21:58;;;;;;;3.63;2.00;;;12.70;81.00;;;;;;5060316;28;20809;-87
2023/03/31 01:24:48;;;;;;;3.40;2.13;;;12.60;81.10;;;;;;5082540;28;20571;-88
2023/03/31 01:27:52;;;;;;;2.40;2.20;;;12.60;82.70;;;;;;5061360;28;20299;-88
2023/03/31 01:30:33;;;;;;;3.63;2.07;;;12.60;80.60;;;;;;5065710;28;20249;-89
2023/03/31 01:33:16;;;;;;;5.53;2.13;;;12.60;82.50;;;;;;5094439;28;20160;-86
2023/03/31 01:36:07;;;;;;;3.37;2.23;;;12.60;80.60;;;;;;5094255;28;20205;-89
2023/03/31 01:38:47;;;;;;;3.50;2.10;;;12.60;81.80;;;;;;5074029;28;20177;-89
2023/03/31 01:41:25;;;;;;;7.43;2.40;;;12.50;82.40;;;;;;5059933;28;20162;-85
2023/03/31 01:44:11;;;;;;;4.63;2.73;;;12.40;84.70;;;;;;5061816;28;20184;-87
2023/03/31 01:47:08;;;;;;;7.57;2.83;;;12.30;86.20;;;;;;5079544;28;20153;-86
2023/03/31 01:49:40;;;;;;;4.97;2.70;;;12.30;88.40;;;;;;5070138;28;20199;-88
2023/03/31 01:52:22;;;;;;;5.57;2.73;;;12.10;90.00;;;;;;5080336;28;20165;-86
2023/03/31 01:55:03;;;;;;;6.20;3.13;;;12.10;91.60;;;;;;5081423;28;20766;-88
2023/03/31 01:57:49;;;;;;;6.87;3.50;;;12.00;93.20;;;;;;5084423;28;20159;-88
2023/03/31 02:00:21;;;;;;;5.73;3.30;;;12.00;94.70;;;;;;5077998;28;20866;-87
2023/03/31 02:02:58;;;;;;;7.17;3.20;;;12.00;95.20;;;;;;5077951;28;20177;-88
2023/03/31 02:05:28;;;;;;;6.70;3.47;;;11.90;95.80;;;;;;5077134;28;20219;-87
2023/03/31 02:08:00;;;;;;;5.47;3.07;;;12.00;97.30;;;;;;5069956;28;20189;-88
2023/03/31 02:10:30;;;;;;;6.50;3.43;;;11.90;98.00;;;;;;5070697;28;20228;-88
2023/03/31 02:12:59;;;;;;;7.17;3.10;;;11.80;98.80;;;;;;5079830;28;20189;-88
2023/03/31 02:15:30;;;;;;;7.67;3.10;;;11.80;98.80;;;;;;5078272;28;20232;-84
2023/03/31 02:17:58;;;;;;;7.53;3.80;;;11.70;99.90;;;;;;5071887;28;20187;-86
2023/03/31 02:20:26;;;;;;;8.67;3.60;;;11.70;99.90;;;;;;5078571;28;20249;-86
2023/03/31 02:22:55;;;;;;;6.57;3.97;;;11.60;99.90;;;;;;5091995;28;20258;-88
2023/03/31 02:25:27;;;;;;;7.50;3.37;;;11.50;99.90;;;;;;5078179;28;20294;-85
2023/03/31 02:27:58;;;;;;;6.43;3.57;;;11.60;99.90;;;;;;5071630;28;20671;-87
2023/03/31 02:30:31;;;;;;;6.67;3.27;;;11.60;99.90;;;;;;5057831;28;20192;-87
2023/03/31 02:32:58;;;;;;;5.27;3.53;;;11.50;99.90;;;;;;5058051;28;20232;-87
2023/03/31 02:35:24;;;;;;;7.50;3.60;;;11.60;99.90;;;;;;5056891;28;20673;-87
2023/03/31 02:37:50;;;;;;;5.87;3.50;;;11.60;99.90;;;;;;5058635;28;20182;-87
2023/03/31 02:40:20;;;;;;;5.50;3.60;;;11.70;99.90;;;;;;5057846;28;20217;-87
2023/03/31 02:42:47;;;;;;;5.50;3.30;;;11.60;99.90;;;;;;5057572;28;20175;-87
2023/03/31 02:45:42;;;;;;;5.90;3.70;;;11.60;99.90;;;;;;5058153;28;20208;-86
2023/03/31 02:48:16;;;;;;;5.50;3.63;;;11.50;99.90;;;;;;5067869;28;20213;-87
2023/03/31 02:51:10;;;;;;;7.50;3.40;;;11.70;99.90;;;;;;5071268;28;20198;-87
2023/03/31 02:54:01;;;;;;;4.43;3.60;;;11.70;99.90;;;;;;5077600;28;20188;-87
2023/03/31 02:56:56;;;;;;;6.07;3.57;;;11.60;99.90;;;;;;5075474;28;20638;-88
2023/03/31 03:00:00;;;;;;;6.50;3.73;;;11.60;99.90;;;;;;5076126;28;20267;-85
2023/03/31 03:02:51;;;;;;;7.30;3.73;;;11.60;99.90;;;;;;5077063;28;20167;-87
2023/03/31 03:05:25;;;;;;;4.17;3.37;;;11.70;99.90;;;;;;5076786;28;20201;-86
2023/03/31 03:08:00;;;;;;;6.10;4.07;;;11.70;99.90;;;;;;5076611;28;20184;-88
2023/03/31 03:10:38;;;;;;;6.00;3.57;;;11.70;99.90;;;;;;5078085;28;20216;-86
2023/03/31 03:13:12;;;;;;;5.63;4.17;;;11.70;99.90;;;;;;5081760;28;20191;-87
2023/03/31 03:15:54;;;;;;;5.30;3.90;;;11.80;99.90;;;;;;5085919;28;20218;-87
2023/03/31 03:18:20;;;;;;;5.97;3.53;;;11.80;99.90;;;;;;5093270;28;20230;-88
2023/03/31 03:20:49;;;;;;;5.43;3.40;;;11.90;99.90;;;;;;5081873;28;20191;-86
2023/03/31 03:23:16;;;;;;;8.07;3.63;;;11.90;99.90;;;;;;5081578;28;20636;-89
2023/03/31 03:25:43;;;;;;;7.63;3.73;;;11.90;99.90;;;;;;5080879;28;20592;-87
2023/03/31 03:28:09;;;;;;;5.20;3.50;;;11.80;99.90;;;;;;5073316;28;20429;-88
2023/03/31 03:30:35;;;;;;;7.97;3.73;;;11.90;99.90;;;;;;5062425;28;20206;-87
2023/03/31 03:33:02;;;;;;;5.57;3.63;;;11.90;99.90;;;;;;5062062;28;20174;-86
2023/03/31 03:35:27;;;;;;;5.93;3.63;;;11.90;99.90;;;;;;5060873;28;20204;-88
2023/03/31 03:37:53;;;;;;;6.67;3.93;;;11.90;99.70;;;;;;5067205;28;20194;-87
2023/03/31 03:40:19;;;;;;;5.53;3.70;;;11.70;99.90;;;;;;5081744;28;20189;-87
2023/03/31 03:42:45;;;;;;;10.30;4.97;;;11.70;99.90;;;;;;5085698;28;20214;-88
2023/03/31 03:45:10;;;;;;;7.63;5.00;;;11.70;99.90;;;;;;5084275;28;20224;-88
2023/03/31 03:47:36;;;;;;;7.30;4.90;;;11.70;99.90;;;;;;5077787;28;20193;-87
2023/03/31 03:50:03;;;;;;;5.57;4.00;;;11.70;99.90;;;;;;5084896;28;20204;-88
2023/03/31 03:52:28;;;;;;;4.27;3.83;;;11.70;99.90;;;;;;5081001;28;20186;-86
2023/03/31 03:54:54;;;;;;;5.33;3.53;;;11.70;99.90;;;;;;5079449;28;20213;-87
2023/03/31 03:57:20;;;;;;;5.77;3.67;;;11.70;99.90;;;;;;5077956;28;20177;-86
2023/03/31 03:59:46;;;;;;;4.57;3.70;;;11.60;99.90;;;;;;5068991;28;20251;-86
2023/03/31 04:02:12;;;;;;;5.53;3.50;;;11.50;99.90;;;;;;5081074;28;20661;-87
2023/03/31 04:04:38;;;;;;;4.33;3.77;;;11.50;99.90;;;;;;5099590;28;20204;-86
2023/03/31 04:07:04;;;;;;;4.30;3.70;;;11.50;99.90;;;;;;5084845;28;20256;-87
2023/03/31 04:09:29;;;;;;;4.27;3.43;;;11.50;99.90;;;;;;5081630;28;20224;-87
2023/03/31 04:11:55;;;;;;;5.00;3.73;;;11.50;99.90;;;;;;5081639;28;20196;-86
2023/03/31 04:14:21;;;;;;;5.73;3.60;;;11.60;99.90;;;;;;5092310;28;20227;-87
2023/03/31 04:16:47;;;;;;;11.77;7.60;;;11.60;99.90;;;;;;5078755;28;20180;-88
2023/03/31 04:19:16;;;;;;;30.43;26.23;;;11.60;99.90;;;;;;5081555;28;20629;-88
2023/03/31 04:21:44;;;;;;;10.47;9.13;;;11.60;99.90;;;;;;5095284;28;20180;-86
2023/03/31 04:24:20;;;;;;;12.23;8.83;;;11.70;99.90;;;;;;5080751;28;20328;-88
2023/03/31 04:26:49;;;;;;;13.83;8.73;;;11.60;99.90;;;;;;5082034;28;20206;-88
2023/03/31 04:29:15;;;;;;;8.53;4.60;;;11.50;99.90;;;;;;5084003;28;20267;-86
2023/03/31 04:31:42;;;;;;;5.93;4.77;;;11.30;99.90;;;;;;5069387;28;20360;-87
2023/03/31 04:34:12;;;;;;;7.47;4.30;;;11.10;99.90;;;;;;5081261;28;20179;-84
2023/03/31 04:36:41;;;;;;;5.53;4.07;;;11.40;91.50;;;;;;5078134;28;20190;-85
2023/03/31 04:39:10;;;;;;;8.03;4.37;;;11.50;99.90;;;;;;5079105;28;20263;-83
2023/03/31 04:41:36;;;;;;;8.13;4.20;;;11.30;99.90;;;;;;5080611;28;20175;-84
2023/03/31 04:44:02;;;;;;;6.93;4.27;;;11.20;99.90;;;;;;5075296;28;20700;-83
2023/03/31 04:46:27;;;;;;;8.77;4.00;;;11.30;99.90;;;;;;5078052;28;20612;-86
2023/03/31 04:48:53;;;;;;;4.73;3.73;;;11.30;99.90;;;;;;5098404;22;20777;-83
2023/03/31 04:51:25;;;;;;;7.37;3.93;;;11.30;99.90;;;;;;5025908;28;20244;-84
2023/03/31 04:53:51;;;;;;;5.50;4.97;;;11.40;99.90;;;;;;5006894;28;20215;-84
2023/03/31 04:56:16;;;;;;;7.87;4.33;;;11.40;99.90;;;;;;5024591;28;20233;-80
2023/03/31 04:58:43;;;;;;;6.60;4.17;;;11.40;99.90;;;;;;5010829;28;20202;-83
2023/03/31 05:01:12;;;;;;;5.17;4.23;;;11.20;99.90;;;;;;5027225;28;20298;-85
2023/03/31 05:03:38;;;;;;;6.33;4.40;;;11.10;99.90;;;;;;5027765;28;20212;-85
2023/03/31 05:06:04;;;;;;;6.23;4.60;;;11.10;99.90;;;;;;5022478;28;20217;-86
2023/03/31 05:08:30;;;;;;;8.17;4.57;;;11.10;99.90;;;;;;5020072;28;20585;-85
2023/03/31 05:10:56;;;;;;;6.33;4.50;;;11.00;99.90;;;;;;5021964;28;20264;-85
2023/03/31 05:13:22;;;;;;;6.07;4.93;;;11.00;99.90;;;;;;5015545;28;20182;-87
2023/03/31 05:15:50;;;;;;;7.17;4.70;;;10.90;99.90;;;;;;4994408;28;20276;-86
2023/03/31 05:18:16;;;;;;;8.27;4.87;;;10.90;99.90;;;;;;5008089;28;20181;-86
2023/03/31 05:20:42;;;;;;;6.90;5.50;;;11.00;99.90;;;;;;5015934;28;20171;-83
2023/03/31 05:23:08;;;;;;;8.10;6.03;;;11.00;99.90;;;;;;5024934;28;20180;-84
2023/03/31 05:25:33;;;;;;;8.17;5.50;;;11.00;99.90;;;;;;5018708;28;20215;-86
2023/03/31 05:28:00;;;;;;;8.57;7.77;;;11.00;99.90;;;;;;4997915;28;20208;-84
2023/03/31 05:30:29;;;;;;;6.70;4.83;;;11.10;99.90;;;;;;4981427;28;20212;-85
2023/03/31 05:32:55;;;;;;;6.37;4.97;;;11.00;99.90;;;;;;5006985;28;20225;-84
2023/03/31 05:35:21;;;;;;;7.57;4.23;;;10.90;99.90;;;;;;4995938;28;20207;-86
2023/03/31 05:37:47;;;;;;;8.47;4.77;;;10.70;99.90;;;;;;5000014;28;20199;-83
2023/03/31 05:40:12;;;;;;;8.47;5.13;;;10.50;99.90;;;;;;4995951;28;20412;-84
2023/03/31 05:42:38;;;;;;;8.60;5.40;;;10.50;99.90;;;;;;4999914;28;20194;-86
2023/03/31 05:45:04;;;;;;;8.67;4.57;;;10.50;99.90;;;;;;5001225;28;20199;-86
2023/03/31 05:47:31;;;;;;;5.90;4.43;;;10.60;99.90;;;;;;4999489;28;20191;-85
2023/03/31 05:49:57;;;;;;;7.63;4.53;;;10.70;99.90;;;;;;4995657;28;20309;-87
2023/03/31 05:52:22;;;;;;;7.07;4.30;;;10.70;99.90;;;;;;5000268;28;20255;-85
2023/03/31 05:54:48;;;;;;;6.93;5.10;;;10.70;99.90;;;;;;5000562;28;20207;-84
2023/03/31 05:57:14;;;;;;;7.17;5.13;;;10.60;99.90;;;;;;4993955;28;20946;-85
2023/03/31 05:59:41;;;;;;;5.93;4.77;;;10.70;99.90;;;;;;4982927;28;20648;-83
2023/03/31 06:02:07;;;;;;;6.60;5.40;;;10.70;99.90;;;;;;4983314;28;20410;-84
2023/03/31 06:04:32;;;;;;;6.50;4.90;;;10.60;99.90;;;;;;4995801;28;20241;-84
2023/03/31 06:06:58;;;;;;;7.57;5.10;;;10.60;99.90;;;;;;4999981;28;20205;-83
2023/03/31 06:09:25;;;;;;;8.50;5.10;;;10.50;99.90;;;;;;4999741;28;20210;-86
2023/03/31 06:11:51;;;;;;;7.20;5.43;;;10.40;99.90;;;;;;4996002;28;20574;-85
2023/03/31 06:14:17;;;;;;;11.70;5.70;;;10.40;99.90;;;;;;4996772;28;20272;-81
2023/03/31 06:16:43;;;;;;;9.90;6.47;;;10.40;99.90;;;;;;4998271;28;20374;-82
2023/03/31 06:19:08;;;;;;;7.57;5.43;;;10.40;99.90;;;;;;5000020;28;20329;-82
2023/03/31 06:21:34;;;;;;;8.87;5.50;;;10.50;99.90;;;;;;4995323;28;20252;-85
2023/03/31 06:24:00;;;;;;;7.43;6.30;;;10.50;99.90;;;;;;5000391;28;20190;-86
2023/03/31 06:26:26;;;;;;;8.20;5.83;;;10.50;99.90;;;;;;4998441;28;20198;-85
2023/03/31 06:28:53;;;;;;;8.47;6.47;;;10.60;99.90;;;;;;4996083;28;20225;-86
2023/03/31 06:31:22;;;;;;;10.13;6.30;;;10.70;99.90;;;;;;5003460;28;20194;-83
2023/03/31 06:33:48;;;;;;;9.30;6.10;;;10.60;99.90;;;;;;5001460;28;20182;-82
2023/03/31 06:36:16;;;;;;;11.40;6.40;;;10.70;99.90;;;;;;5002993;28;20225;-83
2023/03/31 06:38:42;;;;;;;12.93;7.30;;;10.70;99.90;;;;;;5003704;28;20258;-85
2023/03/31 06:41:11;;;;;;;9.23;6.37;;;10.80;99.90;;;;;;5012566;28;20276;-84
2023/03/31 06:43:37;;;;;;;10.77;7.03;;;10.80;99.90;;;;;;5017644;28;20207;-87
2023/03/31 06:46:03;;;;;;;11.43;6.93;;;10.80;99.90;;;;;;5020200;28;20185;-83
2023/03/31 06:48:29;;;;;;;11.77;7.23;;;10.80;99.90;;;;;;5021497;28;20205;-80
2023/03/31 06:50:58;;;;;;;9.30;6.83;;;10.80;99.90;;;;;;5041399;28;20173;-83
2023/03/31 06:53:24;;;;;;;12.13;6.57;;;10.80;99.90;;;;;;5024094;28;20186;-83
2023/03/31 06:55:50;;;;;;;17.00;6.47;;;10.90;99.90;;;;;;5021247;28;20273;-81
2023/03/31 06:58:16;;;;;;;11.10;6.90;;;11.00;99.90;;;;;;5021914;28;20181;-82
2023/03/31 07:00:44;;;;;;;9.30;6.40;;;11.00;99.90;;;;;;5027099;28;20244;-83
2023/03/31 07:03:09;;;;;;;9.67;6.27;;;11.10;99.90;;;;;;5030399;28;20250;-87
2023/03/31 07:05:35;;;;;;;7.63;5.90;;;11.10;99.90;;;;;;5020265;28;20189;-83
2023/03/31 07:08:01;;;;;;;8.17;6.03;;;11.10;99.90;;;;;;5020730;28;20200;-84
2023/03/31 07:10:29;;;;;;;5.67;4.93;;;11.30;99.90;;;;;;5019547;28;20208;-86
2023/03/31 07:12:55;;;;;;;5.53;5.03;;;11.30;99.90;;;;;;5019491;28;20192;-82
2023/03/31 07:15:22;;;;;;;6.60;4.53;;;11.40;99.90;;;;;;5020090;28;20229;-85
2023/03/31 07:17:49;;;;;;;6.30;4.23;;;11.50;99.90;;;;;;5020475;28;20567;-83
2023/03/31 07:20:17;;;;;;;4.50;4.00;;;11.60;99.90;;;;;;5020942;28;20193;-83
2023/03/31 07:22:44;;;;;;;4.00;3.60;;;11.60;99.90;;;;;;5021904;28;20169;-84
2023/03/31 07:25:11;;;;;;;7.93;4.13;;;11.70;99.90;;;;;;5021396;28;20177;-84
2023/03/31 07:27:37;;;;;;;5.87;3.83;;;11.80;99.90;;;;;;5022120;28;20276;-83
2023/03/31 07:30:08;;;;;;;3.53;3.00;;;11.80;99.90;;;;;;5021932;28;20212;-83
2023/03/31 07:32:38;;;;;;;3.73;3.20;;;11.80;99.90;;;;;;5020889;28;20209;-83
2023/03/31 07:35:04;;;;;;;4.10;3.07;;;11.80;99.90;;;;;;5021740;28;20289;-82
2023/03/31 07:37:38;;;;;;;5.70;4.17;;;11.90;99.90;;;;;;5020998;28;20197;-83
2023/03/31 07:40:05;;;;;;;5.70;2.90;;;11.90;97.80;;;;;;5020593;28;20197;-83
2023/03/31 07:42:31;;;;;;;3.73;2.83;;;11.90;98.10;;;;;;5019676;28;20178;-86
2023/03/31 07:44:57;;;;;;;4.80;3.00;;;11.90;96.60;;;;;;5018926;28;20186;-83
2023/03/31 07:47:23;;;;;;;3.67;2.73;;;12.00;94.60;;;;;;5020219;28;20178;-81
2023/03/31 07:49:49;;;;;;;3.30;2.80;;;12.00;93.00;;;;;;5026400;28;20217;-82
2023/03/31 07:52:16;;;;;;;5.53;3.00;;;12.00;94.90;;;;;;5022155;28;20177;-84
2023/03/31 07:54:41;;;;;;;3.43;2.90;;;12.00;95.60;;;;;;5020831;28;20669;-85
2023/03/31 07:57:07;;;;;;;4.43;2.73;;;12.00;92.50;;;;;;5030335;28;20272;-83
2023/03/31 07:59:33;;;;;;;3.87;2.73;;;12.00;92.00;;;;;;5033212;28;20212;-80
2023/03/31 08:01:59;;;;;;;3.30;2.40;;;12.10;94.80;;;;;;5023295;28;20529;-82
2023/03/31 08:04:25;;;;;;;4.60;2.60;;;12.10;95.30;;;;;;5024591;28;20188;-84
2023/03/31 08:06:51;;;;;;;3.80;2.63;;;12.30;91.90;;;;;;5024081;28;20255;-81
2023/03/31 08:09:17;;;;;;;3.77;2.57;;;12.40;91.90;;;;;;5024477;28;20743;-84
2023/03/31 08:11:43;;;;;;;3.07;2.30;;;12.50;91.00;;;;;;5019637;28;20208;-83
2023/03/31 08:14:09;;;;;;;4.13;2.67;;;12.50;89.90;;;;;;5025085;28;20183;-83
2023/03/31 08:16:35;;;;;;;2.70;2.50;;;12.40;90.20;;;;;;5024739;28;20174;-86
2023/03/31 08:19:00;;;;;;;2.90;2.70;;;12.40;88.70;;;;;;5025108;28;20197;-84
2023/03/31 08:21:28;;;;;;;4.00;2.50;;;12.40;91.10;;;;;;5023735;28;20830;-85
2023/03/31 08:23:54;;;;;;;3.93;2.60;;;12.30;90.10;;;;;;5026733;28;20181;-82
2023/03/31 08:26:23;;;;;;;3.53;2.40;;;12.30;94.70;;;;;;5024637;28;20189;-84
2023/03/31 08:28:49;;;;;;;3.97;2.57;;;12.20;94.70;;;;;;5025972;28;20893;-83
2023/03/31 08:31:16;;;;;;;4.10;2.50;;;12.30;91.10;;;;;;5024658;28;20446;-83
2023/03/31 08:33:42;;;;;;;2.83;2.50;;;12.40;90.00;;;;;;5023354;28;20174;-84
2023/03/31 08:36:09;;;;;;;5.00;2.77;;;12.50;91.90;;;;;;5022676;28;20216;-84
2023/03/31 08:38:40;;;;;;;4.10;3.03;;;12.70;93.60;;;;;;5022986;28;20199;-83
2023/03/31 08:41:16;;;;;;;3.90;2.83;;;13.00;90.60;;;;;;5025522;28;20216;-84
2023/03/31 08:43:45;;;;;;;3.43;2.67;;;13.20;90.70;;;;;;5024796;28;20179;-81
2023/03/31 08:46:14;;;;;;;3.70;2.67;;;13.20;88.10;;;;;;5024462;28;20213;-82
2023/03/31 08:48:54;;;;;;;4.17;2.60;;;13.20;87.40;;;;;;5025850;28;20230;-85
2023/03/31 08:51:29;;;;;;;5.57;2.80;;;13.30;87.00;;;;;;5026600;28;20230;-86
2023/03/31 08:54:16;;;;;;;5.47;3.00;;;13.50;87.80;;;;;;5029153;28;20182;-82
2023/03/31 08:56:45;;;;;;;3.80;2.83;;;13.70;85.10;;;;;;5019952;28;20273;-83
2023/03/31 08:59:21;;;;;;;7.27;2.90;;;13.60;84.60;;;;;;5021239;28;20211;-84
2023/03/31 09:01:54;;;;;;;4.07;2.30;;;13.40;84.80;;;;;;5022611;28;20211;-86
2023/03/31 09:04:31;;;;;;;5.27;2.70;;;13.40;83.60;;;;;;5023397;28;20229;-85
2023/03/31 09:07:11;;;;;;;3.17;2.13;;;13.50;84.90;;;;;;5022956;28;20192;-85
2023/03/31 09:09:49;;;;;;;4.17;2.60;;;13.60;82.70;;;;;;5020270;28;20333;-87
2023/03/31 09:12:48;;;;;;;4.87;2.73;;;13.90;84.60;;;;;;5024855;28;20839;-83
2023/03/31 09:15:23;;;;;;;4.17;2.97;;;14.00;81.50;;;;;;5024465;28;20220;-86
2023/03/31 09:17:50;;;;;;;3.73;2.83;;;14.40;77.40;;;;;;5024702;28;20168;-86
2023/03/31 09:20:29;;;;;;;3.60;2.53;;;14.30;75.70;;;;;;5024540;28;20219;-85
2023/03/31 09:23:13;;;;;;;3.97;3.10;;;14.50;78.20;;;;;;5024084;28;20175;-82
2023/03/31 09:25:40;;;;;;;4.70;2.60;;;14.50;77.60;;;;;;5022798;28;20193;-83
2023/03/31 09:28:17;;;;;;;9.30;3.07;;;14.30;77.10;;;;;;5021290;28;20186;-82
2023/03/31 09:30:43;;;;;;;4.23;2.50;;;14.10;76.90;;;;;;5023683;28;20241;-84
2023/03/31 09:33:09;;;;;;;5.63;2.90;;;14.10;77.10;;;;;;5005649;28;20217;-83
2023/03/31 09:35:35;;;;;;;5.27;2.83;;;14.00;76.10;;;;;;5022682;28;20211;-84
2023/03/31 09:38:01;;;;;;;8.10;3.03;;;13.90;76.30;;;;;;5023867;28;20179;-83
2023/03/31 09:40:28;;;;;;;5.80;2.90;;;14.00;76.60;;;;;;5023265;28;20367;-83
2023/03/31 09:43:02;;;;;;;5.70;3.27;;;14.20;75.50;;;;;;5022838;28;20169;-83
2023/03/31 09:45:30;;;;;;;7.77;3.07;;;14.50;72.50;;;;;;5021435;28;20222;-83
2023/03/31 09:48:05;;;;;;;4.83;2.87;;;14.50;74.60;;;;;;5021635;28;20215;-83
2023/03/31 09:50:39;;;;;;;5.70;3.20;;;14.70;71.90;;;;;;5029400;28;20726;-85
2023/03/31 09:53:11;;;;;;;5.30;2.90;;;14.60;75.50;;;;;;5028360;28;20295;-85
2023/03/31 09:55:45;;;;;;;6.00;3.53;;;14.90;71.80;;;;;;5020139;28;20228;-87
2023/03/31 09:58:15;;;;;;;5.50;3.30;;;14.90;72.70;;;;;;5004063;28;20178;-81
2023/03/31 10:00:54;;;;;;;5.40;3.20;;;15.10;70.40;;;;;;5022897;28;20387;-86
2023/03/31 10:03:21;;;;;;;7.83;3.77;;;15.00;73.10;;;;;;5023761;28;20254;-86
2023/03/31 10:05:52;;;;;;;8.57;3.07;;;15.10;67.70;;;;;;5022178;28;20243;-83
2023/03/31 10:08:39;;;;;;;10.33;3.10;;;15.20;65.90;;;;;;5021928;28;20166;-83
2023/03/31 10:11:05;;;;;;;6.73;3.23;;;15.30;65.70;;;;;;5003289;28;20175;-85
2023/03/31 10:14:00;;;;;;;9.77;3.10;;;15.60;65.50;;;;;;5002873;28;20190;-85
2023/03/31 10:16:30;;;;;;;9.87;3.20;;;15.30;65.50;;;;;;5002582;28;20233;-85
2023/03/31 10:19:17;;;;;;;5.67;3.17;;;15.20;63.20;;;;;;5007273;28;20210;-83
2023/03/31 10:21:46;;;;;;;9.03;3.17;;;15.40;63.80;;;;;;5021113;28;20183;-86
2023/03/31 10:24:17;;;;;;;6.10;3.00;;;15.10;62.70;;;;;;5002739;28;20183;-84
2023/03/31 10:26:48;;;;;;;7.30;3.47;;;14.90;63.60;;;;;;5001802;28;20187;-84
2023/03/31 10:29:20;;;;;;;6.40;3.20;;;14.80;65.50;;;;;;5001885;28;20416;-83
2023/03/31 10:31:46;;;;;;;7.43;2.90;;;15.00;63.40;;;;;;5019620;28;20192;-82
2023/03/31 10:34:15;;;;;;;8.57;3.27;;;15.20;62.10;;;;;;5021971;28;20259;-84
2023/03/31 10:36:47;;;;;;;6.97;3.17;;;15.10;64.50;;;;;;5022079;28;20185;-82
2023/03/31 10:39:16;;;;;;;8.13;3.47;;;15.30;63.90;;;;;;5022954;28;20232;-85
2023/03/31 10:41:42;;;;;;;5.40;3.17;;;15.20;65.30;;;;;;5020813;28;20190;-83
2023/03/31 10:44:36;;;;;;;8.53;3.83;;;15.00;64.30;;;;;;5022223;28;20208;-85
2023/03/31 10:47:18;;;;;;;5.37;2.83;;;14.80;67.00;;;;;;5028239;28;20234;-83
2023/03/31 10:49:48;;;;;;;3.07;2.10;;;14.10;71.30;;;;;;5027572;28;20229;-85
2023/03/31 10:52:20;;;;;;;5.10;2.07;;;13.40;72.50;;;;;;5018581;28;20182;-87
2023/03/31 10:54:47;;;;;;;3.90;1.80;;;13.00;75.40;;;;;;5018112;28;20216;-84
2023/03/31 10:57:14;;;;;;;3.90;1.83;;;12.80;74.10;;;;;;5033538;28;20189;-84
2023/03/31 11:00:04;;;;;;;2.63;1.60;;;12.70;73.90;;;;;;5038977;28;20633;-85
2023/03/31 11:02:46;;;;;;;2.00;1.43;;;12.60;73.30;;;;;;5016742;28;20177;-85
2023/03/31 11:06:10;;;;;;;1.60;1.40;;;12.40;74.20;;;;;;5021358;28;20253;-84
2023/03/31 11:08:41;;;;;;;2.87;1.53;;;12.30;76.40;;;;;;4964760;28;20872;-88
2023/03/31 11:11:37;;;;;;;1.97;1.53;;;12.10;76.60;;;;;;5019975;28;20202;-83
2023/03/31 11:14:42;;;;;;;2.07;1.60;;;11.90;78.10;;;;;;5015686;28;20372;-85
2023/03/31 11:17:22;;;;;;;1.47;1.40;;;11.90;76.10;;;;;;5021810;28;20177;-85
2023/03/31 11:20:05;;;;;;;1.93;1.60;;;11.90;76.40;;;;;;5021523;28;20197;-84
2023/03/31 11:22:42;;;;;;;2.30;1.80;;;12.00;73.20;;;;;;5021710;28;20166;-87
2023/03/31 11:25:34;;;;;;;4.27;1.97;;;12.20;72.80;;;;;;5033253;28;20183;-85
2023/03/31 11:28:16;;;;;;;2.30;1.43;;;12.30;70.00;;;;;;5031804;28;20189;-88
2023/03/31 11:30:50;;;;;;;2.37;1.60;;;12.50;70.10;;;;;;5023423;28;20174;-84
2023/03/31 11:33:26;;;;;;;1.97;1.60;;;12.60;71.00;;;;;;5025123;28;20204;-86
2023/03/31 11:36:17;;;;;;;2.27;1.73;;;12.90;71.50;;;;;;5025386;28;20204;-87
2023/03/31 11:38:50;;;;;;;1.87;1.53;;;13.10;71.90;;;;;;5026222;28;20311;-86
2023/03/31 11:41:20;;;;;;;1.90;1.70;;;13.20;73.10;;;;;;5025791;28;20272;-86
2023/03/31 11:43:56;;;;;;;3.37;1.60;;;13.70;70.60;;;;;;5033330;28;20168;-84
2023/03/31 11:46:45;;;;;;;3.13;1.60;;;13.80;69.60;;;;;;5029235;28;20288;-87
2023/03/31 11:49:24;;;;;;;1.90;1.57;;;14.10;70.10;;;;;;5010317;28;20244;-87
2023/03/31 11:52:15;;;;;;;2.90;1.57;;;14.30;68.70;;;;;;5023859;28;20189;-87
2023/03/31 11:54:59;;;;;;;2.53;1.57;;;14.70;67.80;;;;;;5023922;28;20233;-86
2023/03/31 11:57:37;;;;;;;1.50;1.30;;;14.30;67.00;;;;;;5024125;28;20174;-85
2023/03/31 12:00:31;;;;;;;2.23;1.77;;;13.60;70.20;;;;;;5025532;28;20238;-86
2023/03/31 12:03:22;;;;;;;1.70;1.60;;;13.30;72.10;;;;;;5020990;28;20191;-83
2023/03/31 12:05:56;;;;;;;2.53;1.80;;;13.10;75.50;;;;;;5025271;28;20205;-85
2023/03/31 12:08:21;;;;;;;2.87;1.83;;;13.10;77.30;;;;;;5026756;28;20168;-84
2023/03/31 12:10:53;;;;;;;3.00;1.70;;;12.90;77.00;;;;;;5026377;28;20284;-88
2023/03/31 12:13:37;;;;;;;1.90;1.70;;;12.80;75.20;;;;;;5009412;28;20189;-87
2023/03/31 12:16:21;;;;;;;3.70;1.90;;;12.70;76.30;;;;;;5027298;28;20205;-86
2023/03/31 12:19:23;;;;;;;1.77;1.67;;;12.80;74.90;;;;;;5008436;28;20218;-85
2023/03/31 12:22:01;;;;;;;2.97;1.70;;;13.00;73.50;;;;;;5008833;28;20176;-84
2023/03/31 12:24:28;;;;;;;2.10;1.70;;;13.00;72.10;;;;;;5025477;28;20337;-84
2023/03/31 12:27:12;;;;;;;2.40;1.50;;;13.00;74.20;;;;;;5025796;28;20663;-87
2023/03/31 12:30:18;;;;;;;3.67;1.67;;;13.10;73.00;;;;;;5026310;28;20248;-88
2023/03/31 12:33:13;;;;;;;1.87;1.77;;;13.40;71.20;;;;;;5025115;28;20262;-87
2023/03/31 12:35:54;;;;;;;3.53;2.00;;;13.60;71.20;;;;;;4991703;28;20287;-88
2023/03/31 12:39:04;;;;;;;3.23;2.10;;;13.30;71.10;;;;;;5006127;28;20165;-89
2023/03/31 12:41:49;;;;;;;2.77;1.80;;;13.10;74.00;;;;;;5023073;28;20197;-87
2023/03/31 12:44:52;;;;;;;3.50;1.83;;;13.20;76.20;;;;;;5020331;28;20159;-86
2023/03/31 12:47:33;;;;;;;2.53;2.07;;;13.80;74.90;;;;;;5005778;28;20195;-87
2023/03/31 12:50:12;;;;;;;2.87;1.93;;;14.30;73.50;;;;;;5034199;28;20219;-89
2023/03/31 12:52:43;;;;;;;2.80;2.00;;;13.80;73.80;;;;;;5039508;28;20175;-83
2023/03/31 12:55:09;;;;;;;3.27;1.70;;;13.40;75.80;;;;;;5032576;28;20210;-86
2023/03/31 12:57:35;;;;;;;1.97;1.77;;;12.90;78.20;;;;;;5021863;28;20197;-87
2023/03/31 13:00:13;;;;;;;3.63;2.00;;;13.20;78.30;;;;;;5004328;28;20611;-87
2023/03/31 13:02:39;;;;;;;5.30;2.10;;;13.60;76.60;;;;;;5021627;28;20170;-86
2023/03/31 13:05:36;;;;;;;2.30;1.77;;;14.10;76.00;;;;;;5020478;28;20191;-84
2023/03/31 13:08:07;;;;;;;3.60;2.10;;;14.40;72.60;;;;;;5021084;28;20204;-88
2023/03/31 13:10:52;;;;;;;2.40;1.70;;;14.10;72.50;;;;;;5020940;28;20165;-82
2023/03/31 13:13:19;;;;;;;2.90;2.00;;;14.00;73.80;;;;;;5020512;28;20191;-87